createdAt,value
2019-02-25T00:00:18.284Z,1040.19
2019-02-25T00:01:17.773Z,1040.14
2019-02-25T00:02:19.131Z,1040.18
2019-02-25T00:03:17.643Z,1040.15
2019-02-25T00:04:17.871Z,1040.17
2019-02-25T00:05:17.492Z,1040.13
2019-02-25T00:06:17.230Z,1040.12
2019-02-25T00:07:18.007Z,1040.1
2019-02-25T00:08:17.937Z,1040.08
2019-02-25T00:09:17.456Z,1040.06
2019-02-25T00:10:17.362Z,1040.09
2019-02-25T00:11:17.982Z,1040.14
2019-02-25T00:12:17.344Z,1040.15
2019-02-25T00:13:17.489Z,1040.12
2019-02-25T00:14:17.982Z,1040.12
2019-02-25T00:15:17.352Z,1040.15
2019-02-25T00:16:17.514Z,1040.12
2019-02-25T00:17:17.455Z,1040.1
2019-02-25T00:18:17.700Z,1040.08
2019-02-25T00:19:17.702Z,1040.09
2019-02-25T00:20:17.507Z,1040.07
2019-02-25T00:21:17.439Z,1040.07
2019-02-25T00:22:17.496Z,1040.07
2019-02-25T00:23:17.484Z,1040.09
2019-02-25T00:24:19.056Z,1040.11
2019-02-25T00:25:17.937Z,1040.08
2019-02-25T00:26:17.119Z,1040.09
2019-02-25T00:27:17.653Z,1040.05
2019-02-25T00:28:17.305Z,1040.06
2019-02-25T00:29:17.863Z,1040.02
2019-02-25T00:30:17.885Z,1040.01
2019-02-25T00:31:17.483Z,1040.01
2019-02-25T00:32:18.795Z,1039.99
2019-02-25T00:33:18.182Z,1039.97
2019-02-25T00:34:17.688Z,1039.97
2019-02-25T00:35:18.411Z,1040
2019-02-25T00:36:17.683Z,1040
2019-02-25T00:37:19.196Z,1040.01
2019-02-25T00:38:17.436Z,1040.02
2019-02-25T00:39:17.475Z,1040
2019-02-25T00:40:17.528Z,1039.98
2019-02-25T00:41:17.116Z,1039.96
2019-02-25T00:42:17.291Z,1039.96
2019-02-25T00:43:17.373Z,1039.94
2019-02-25T00:44:17.355Z,1039.96
2019-02-25T00:45:18.118Z,1039.97
2019-02-25T00:46:17.361Z,1039.96
2019-02-25T00:47:17.147Z,1039.93
2019-02-25T00:48:17.305Z,1039.96
2019-02-25T00:49:17.487Z,1039.95
2019-02-25T00:50:17.498Z,1039.96
2019-02-25T00:51:17.959Z,1040.01
2019-02-25T00:52:17.302Z,1040.03
2019-02-25T00:53:17.352Z,1040.03
2019-02-25T00:54:17.226Z,1040.02
2019-02-25T00:55:17.351Z,1040.01
2019-02-25T00:56:17.277Z,1040.04
2019-02-25T00:57:18.080Z,1040.04
2019-02-25T00:58:17.472Z,1040.02
2019-02-25T00:59:17.338Z,1040.04
2019-02-25T01:00:17.378Z,1040.07
2019-02-25T01:01:17.487Z,1040.08
2019-02-25T01:02:17.322Z,1040.1
2019-02-25T01:03:17.519Z,1040.06
2019-02-25T01:04:17.184Z,1040.12
2019-02-25T01:05:17.210Z,1040.09
2019-02-25T01:06:17.066Z,1040.1
2019-02-25T01:07:17.919Z,1040.05
2019-02-25T01:08:17.354Z,1040.07
2019-02-25T01:09:17.015Z,1040.04
2019-02-25T01:10:17.563Z,1040.11
2019-02-25T01:11:17.467Z,1040.05
2019-02-25T01:12:17.719Z,1040.03
2019-02-25T01:13:18.092Z,1040.04
2019-02-25T01:14:17.140Z,1040.02
2019-02-25T01:15:17.226Z,1040
2019-02-25T01:16:17.515Z,1040.02
2019-02-25T01:17:17.073Z,1040.03
2019-02-25T01:18:17.208Z,1040.01
2019-02-25T01:19:17.606Z,1039.97
2019-02-25T01:20:17.507Z,1039.96
2019-02-25T01:21:18.144Z,1039.96
2019-02-25T01:22:17.724Z,1039.97
2019-02-25T01:23:17.171Z,1039.95
2019-02-25T01:24:17.618Z,1040
2019-02-25T01:25:17.662Z,1039.98
2019-02-25T01:26:17.687Z,1039.99
2019-02-25T01:27:17.259Z,1039.98
2019-02-25T01:28:17.384Z,1039.96
2019-02-25T01:29:17.663Z,1039.93
2019-02-25T01:30:17.481Z,1039.97
2019-02-25T01:31:16.974Z,1039.99
2019-02-25T01:32:17.500Z,1039.97
2019-02-25T01:33:19.130Z,1039.97
2019-02-25T01:34:18.602Z,1040
2019-02-25T01:35:19.108Z,1040
2019-02-25T01:36:17.176Z,1039.98
2019-02-25T01:37:17.013Z,1039.97
2019-02-25T01:38:17.191Z,1039.99
2019-02-25T01:39:17.030Z,1039.97
2019-02-25T01:40:17.449Z,1039.98
2019-02-25T01:41:17.341Z,1039.95
2019-02-25T01:42:18.276Z,1039.95
2019-02-25T01:43:19.134Z,1039.87
2019-02-25T01:44:16.945Z,1039.88
2019-02-25T01:45:17.326Z,1039.87
2019-02-25T01:46:17.018Z,1039.82
2019-02-25T01:47:17.369Z,1039.8
2019-02-25T01:48:17.344Z,1039.8
2019-02-25T01:49:16.984Z,1039.8
2019-02-25T01:50:17.325Z,1039.78
2019-02-25T01:51:17.416Z,1039.77
2019-02-25T01:52:17.115Z,1039.73
2019-02-25T01:53:17.245Z,1039.68
2019-02-25T01:54:17.275Z,1039.69
2019-02-25T01:55:17.302Z,1039.69
2019-02-25T01:56:18.428Z,1039.71
2019-02-25T01:57:17.470Z,1039.69
2019-02-25T01:58:17.146Z,1039.72
2019-02-25T01:59:17.149Z,1039.66
2019-02-25T02:00:17.697Z,1039.66
2019-02-25T02:01:17.408Z,1039.68
2019-02-25T02:02:17.417Z,1039.67
2019-02-25T02:03:17.401Z,1039.71
2019-02-25T02:04:17.521Z,1039.67
2019-02-25T02:05:17.620Z,1039.68
2019-02-25T02:06:17.349Z,1039.6
2019-02-25T02:07:17.488Z,1039.59
2019-02-25T02:08:17.769Z,1039.61
2019-02-25T02:09:17.260Z,1039.61
2019-02-25T02:10:17.358Z,1039.7
2019-02-25T02:11:17.458Z,1039.69
2019-02-25T02:12:17.274Z,1039.73
2019-02-25T02:13:17.478Z,1039.79
2019-02-25T02:14:17.060Z,1039.74
2019-02-25T02:15:17.407Z,1039.71
2019-02-25T02:16:17.456Z,1039.69
2019-02-25T02:17:18.973Z,1039.71
2019-02-25T02:18:18.115Z,1039.71
2019-02-25T02:19:17.449Z,1039.68
2019-02-25T02:20:17.322Z,1039.75
2019-02-25T02:21:17.370Z,1039.72
2019-02-25T02:22:17.553Z,1039.73
2019-02-25T02:23:17.253Z,1039.7
2019-02-25T02:24:19.113Z,1039.76
2019-02-25T02:25:17.280Z,1039.75
2019-02-25T02:26:17.208Z,1039.76
2019-02-25T02:27:17.263Z,1039.74
2019-02-25T02:28:17.156Z,1039.8
2019-02-25T02:29:17.096Z,1039.76
2019-02-25T02:30:17.497Z,1039.75
2019-02-25T02:31:17.707Z,1039.77
2019-02-25T02:32:17.339Z,1039.77
2019-02-25T02:33:19.078Z,1039.79
2019-02-25T02:34:17.273Z,1039.77
2019-02-25T02:35:17.313Z,1039.78
2019-02-25T02:36:17.277Z,1039.78
2019-02-25T02:37:18.921Z,1039.79
2019-02-25T02:38:17.133Z,1039.79
2019-02-25T02:39:19.123Z,1039.75
2019-02-25T02:40:17.582Z,1039.74
2019-02-25T02:41:17.330Z,1039.72
2019-02-25T02:42:17.454Z,1039.72
2019-02-25T02:43:17.304Z,1039.77
2019-02-25T02:44:17.509Z,1039.75
2019-02-25T02:45:17.399Z,1039.7
2019-02-25T02:46:17.235Z,1039.67
2019-02-25T02:47:19.084Z,1039.66
2019-02-25T02:48:17.126Z,1039.69
2019-02-25T02:49:17.460Z,1039.67
2019-02-25T02:50:17.705Z,1039.71
2019-02-25T02:51:17.098Z,1039.67
2019-02-25T02:52:17.098Z,1039.66
2019-02-25T02:53:17.365Z,1039.66
2019-02-25T02:54:17.728Z,1039.65
2019-02-25T02:55:17.172Z,1039.63
2019-02-25T02:56:17.219Z,1039.63
2019-02-25T02:57:17.706Z,1039.65
2019-02-25T02:58:17.085Z,1039.69
2019-02-25T02:59:17.406Z,1039.7
2019-02-25T03:00:17.222Z,1039.72
2019-02-25T03:01:18.237Z,1039.74
2019-02-25T03:02:18.041Z,1039.72
2019-02-25T03:03:17.164Z,1039.71
2019-02-25T03:04:17.743Z,1039.71
2019-02-25T03:05:17.396Z,1039.72
2019-02-25T03:06:19.031Z,1039.72
2019-02-25T03:07:19.026Z,1039.73
2019-02-25T03:08:17.082Z,1039.69
2019-02-25T03:09:17.075Z,1039.71
2019-02-25T03:10:17.330Z,1039.68
2019-02-25T03:11:17.276Z,1039.7
2019-02-25T03:12:17.338Z,1039.75
2019-02-25T03:13:17.344Z,1039.76
2019-02-25T03:14:17.400Z,1039.77
2019-02-25T03:15:17.630Z,1039.76
2019-02-25T03:16:17.163Z,1039.77
2019-02-25T03:17:17.440Z,1039.78
2019-02-25T03:18:17.189Z,1039.73
2019-02-25T03:19:17.264Z,1039.77
2019-02-25T03:20:17.356Z,1039.8
2019-02-25T03:21:17.703Z,1039.83
2019-02-25T03:22:17.578Z,1039.83
2019-02-25T03:23:18.988Z,1039.76
2019-02-25T03:24:17.890Z,1039.79
2019-02-25T03:25:17.561Z,1039.78
2019-02-25T03:26:17.107Z,1039.83
2019-02-25T03:27:17.400Z,1039.85
2019-02-25T03:28:17.497Z,1039.86
2019-02-25T03:29:17.609Z,1039.9
2019-02-25T03:30:17.035Z,1039.93
2019-02-25T03:31:17.129Z,1039.93
2019-02-25T03:32:17.742Z,1039.93
2019-02-25T03:33:16.909Z,1040.01
2019-02-25T03:34:17.225Z,1039.97
2019-02-25T03:35:17.561Z,1039.93
2019-02-25T03:36:17.276Z,1039.89
2019-02-25T03:37:17.067Z,1039.93
2019-02-25T03:38:18.404Z,1039.97
2019-02-25T03:39:16.948Z,1039.97
2019-02-25T03:40:17.511Z,1039.96
2019-02-25T03:41:17.094Z,1039.95
2019-02-25T03:42:17.321Z,1039.96
2019-02-25T03:43:17.479Z,1040.01
2019-02-25T03:44:17.327Z,1039.98
2019-02-25T03:45:18.045Z,1040.02
2019-02-25T03:46:17.270Z,1039.99
2019-02-25T03:47:17.652Z,1040
2019-02-25T03:48:17.029Z,1040.01
2019-02-25T03:49:17.417Z,1039.96
2019-02-25T03:50:17.320Z,1039.97
2019-02-25T03:51:17.309Z,1040
2019-02-25T03:52:17.365Z,1039.98
2019-02-25T03:53:17.997Z,1039.96
2019-02-25T03:54:17.496Z,1039.94
2019-02-25T03:55:19.163Z,1039.9
2019-02-25T03:56:17.145Z,1039.93
2019-02-25T03:57:17.142Z,1039.95
2019-02-25T03:58:17.270Z,1039.94
2019-02-25T03:59:17.029Z,1039.93
2019-02-25T04:00:17.399Z,1039.93
2019-02-25T04:01:18.113Z,1039.96
2019-02-25T04:02:17.232Z,1039.98
2019-02-25T04:03:17.641Z,1040.03
2019-02-25T04:04:17.455Z,1040.09
2019-02-25T04:05:17.261Z,1040.01
2019-02-25T04:06:18.277Z,1040.01
2019-02-25T04:07:17.992Z,1040.06
2019-02-25T04:08:17.439Z,1040.08
2019-02-25T04:09:18.388Z,1040.03
2019-02-25T04:10:17.499Z,1040.04
2019-02-25T04:11:18.024Z,1040.03
2019-02-25T04:12:17.438Z,1040.01
2019-02-25T04:13:17.346Z,1040.05
2019-02-25T04:14:19.002Z,1040.1
2019-02-25T04:15:17.147Z,1040.11
2019-02-25T04:16:17.165Z,1040.1
2019-02-25T04:17:17.292Z,1040.1
2019-02-25T04:18:17.469Z,1040.06
2019-02-25T04:19:17.091Z,1040.03
2019-02-25T04:20:17.293Z,1040.01
2019-02-25T04:21:17.243Z,1040.01
2019-02-25T04:22:17.088Z,1040.05
2019-02-25T04:23:17.507Z,1040.03
2019-02-25T04:24:17.462Z,1040.06
2019-02-25T04:25:17.337Z,1040.06
2019-02-25T04:26:17.417Z,1040.09
2019-02-25T04:27:19.047Z,1040.1
2019-02-25T04:28:17.954Z,1040.03
2019-02-25T04:29:17.649Z,1040.03
2019-02-25T04:30:17.677Z,1040
2019-02-25T04:31:16.997Z,1040.04
2019-02-25T04:32:17.867Z,1040.02
2019-02-25T04:33:17.399Z,1040.01
2019-02-25T04:34:18.982Z,1040.1
2019-02-25T04:35:17.506Z,1040.02
2019-02-25T04:36:17.044Z,1040.06
2019-02-25T04:37:17.053Z,1040.1
2019-02-25T04:38:17.140Z,1040.08
2019-02-25T04:39:17.209Z,1040.09
2019-02-25T04:40:16.986Z,1040.08
2019-02-25T04:41:17.196Z,1040.08
2019-02-25T04:42:17.728Z,1040.08
2019-02-25T04:43:17.338Z,1040.11
2019-02-25T04:44:17.347Z,1040.13
2019-02-25T04:45:17.476Z,1040.16
2019-02-25T04:46:17.682Z,1040.13
2019-02-25T04:47:17.033Z,1040.12
2019-02-25T04:48:17.083Z,1040.12
2019-02-25T04:49:17.072Z,1040.1
2019-02-25T04:50:17.166Z,1040.13
2019-02-25T04:51:17.900Z,1040.07
2019-02-25T04:52:18.201Z,1040.09
2019-02-25T04:53:17.286Z,1040.06
2019-02-25T04:54:17.420Z,1040.08
2019-02-25T04:55:17.563Z,1040.04
2019-02-25T04:56:17.023Z,1040.05
2019-02-25T04:57:17.288Z,1040.07
2019-02-25T04:58:17.424Z,1040.04
2019-02-25T04:59:17.123Z,1040.04
2019-02-25T05:00:18.439Z,1040.05
2019-02-25T05:01:17.456Z,1040.03
2019-02-25T05:02:17.376Z,1040.01
2019-02-25T05:03:19.052Z,1040.02
2019-02-25T05:04:17.501Z,1040.02
2019-02-25T05:05:17.295Z,1040.02
2019-02-25T05:06:17.822Z,1040.01
2019-02-25T05:07:17.168Z,1040.04
2019-02-25T05:08:17.138Z,1040.02
2019-02-25T05:09:17.868Z,1039.99
2019-02-25T05:10:17.098Z,1040.05
2019-02-25T05:11:17.767Z,1040
2019-02-25T05:12:18.116Z,1039.98
2019-02-25T05:13:18.066Z,1040.02
2019-02-25T05:14:17.323Z,1040.04
2019-02-25T05:15:17.264Z,1040.08
2019-02-25T05:16:17.558Z,1040.09
2019-02-25T05:17:17.020Z,1040.11
2019-02-25T05:18:18.105Z,1040.08
2019-02-25T05:19:17.467Z,1040.07
2019-02-25T05:20:17.392Z,1040.05
2019-02-25T05:21:17.299Z,1039.96
2019-02-25T05:22:17.394Z,1039.97
2019-02-25T05:23:17.500Z,1040
2019-02-25T05:24:17.225Z,1039.92
2019-02-25T05:25:17.771Z,1039.9
2019-02-25T05:26:17.366Z,1039.9
2019-02-25T05:27:17.408Z,1039.9
2019-02-25T05:28:17.487Z,1039.86
2019-02-25T05:29:17.462Z,1039.86
2019-02-25T05:30:17.294Z,1039.89
2019-02-25T05:31:17.152Z,1039.9
2019-02-25T05:32:17.799Z,1039.93
2019-02-25T05:33:17.955Z,1039.91
2019-02-25T05:34:18.425Z,1039.86
2019-02-25T05:35:16.895Z,1039.86
2019-02-25T05:36:18.962Z,1039.9
2019-02-25T05:37:17.512Z,1039.93
2019-02-25T05:38:17.175Z,1039.93
2019-02-25T05:39:17.332Z,1039.92
2019-02-25T05:40:17.427Z,1039.94
2019-02-25T05:41:17.462Z,1039.94
2019-02-25T05:42:17.683Z,1039.97
2019-02-25T05:43:18.678Z,1039.94
2019-02-25T05:44:17.002Z,1039.92
2019-02-25T05:45:17.078Z,1039.9
2019-02-25T05:46:17.251Z,1039.88
2019-02-25T05:47:17.279Z,1039.93
2019-02-25T05:48:17.054Z,1039.95
2019-02-25T05:49:17.311Z,1040.03
2019-02-25T05:50:17.421Z,1039.95
2019-02-25T05:51:17.422Z,1039.94
2019-02-25T05:52:17.536Z,1039.93
2019-02-25T05:53:17.227Z,1039.91
2019-02-25T05:54:17.524Z,1039.91
2019-02-25T05:55:16.981Z,1039.89
2019-02-25T05:56:17.636Z,1039.91
2019-02-25T05:57:17.893Z,1039.9
2019-02-25T05:58:16.932Z,1039.91
2019-02-25T05:59:17.465Z,1039.92
2019-02-25T06:00:17.419Z,1039.95
2019-02-25T06:01:17.146Z,1040
2019-02-25T06:02:17.293Z,1040
2019-02-25T06:03:17.708Z,1040.02
2019-02-25T06:04:17.290Z,1040.02
2019-02-25T06:05:17.424Z,1040.04
2019-02-25T06:06:17.072Z,1040.07
2019-02-25T06:07:17.223Z,1040.04
2019-02-25T06:08:17.053Z,1040.05
2019-02-25T06:09:17.755Z,1040.02
2019-02-25T06:10:17.085Z,1040.04
2019-02-25T06:11:17.459Z,1040.04
2019-02-25T06:12:17.803Z,1040.02
2019-02-25T06:13:16.993Z,1040.03
2019-02-25T06:14:18.096Z,1040.07
2019-02-25T06:15:17.184Z,1040.08
2019-02-25T06:16:17.344Z,1040.04
2019-02-25T06:17:17.700Z,1040.09
2019-02-25T06:18:18.841Z,1040.1
2019-02-25T06:19:17.133Z,1040.07
2019-02-25T06:20:17.399Z,1040.05
2019-02-25T06:21:17.352Z,1040.05
2019-02-25T06:22:17.002Z,1040.1
2019-02-25T06:23:19.038Z,1040.05
2019-02-25T06:24:17.074Z,1040.09
2019-02-25T06:25:17.424Z,1040.14
2019-02-25T06:26:17.257Z,1040.12
2019-02-25T06:27:17.264Z,1040.16
2019-02-25T06:28:17.220Z,1040.19
2019-02-25T06:29:16.920Z,1040.22
2019-02-25T06:30:17.402Z,1040.2
2019-02-25T06:31:17.396Z,1040.19
2019-02-25T06:32:17.503Z,1040.2
2019-02-25T06:33:17.649Z,1040.21
2019-02-25T06:34:17.270Z,1040.19
2019-02-25T06:35:17.033Z,1040.16
2019-02-25T06:36:18.966Z,1040.17
2019-02-25T06:37:19.038Z,1040.16
2019-02-25T06:38:17.158Z,1040.16
2019-02-25T06:39:18.187Z,1040.16
2019-02-25T06:40:18.900Z,1040.15
2019-02-25T06:41:16.907Z,1040.19
2019-02-25T06:42:17.125Z,1040.27
2019-02-25T06:43:18.833Z,1040.28
2019-02-25T06:44:17.337Z,1040.27
2019-02-25T06:45:17.433Z,1040.22
2019-02-25T06:46:17.026Z,1040.23
2019-02-25T06:47:17.200Z,1040.22
2019-02-25T06:48:18.641Z,1040.27
2019-02-25T06:49:17.008Z,1040.27
2019-02-25T06:50:17.080Z,1040.28
2019-02-25T06:51:17.621Z,1040.34
2019-02-25T06:52:17.294Z,1040.38
2019-02-25T06:53:17.106Z,1040.33
2019-02-25T06:54:17.750Z,1040.37
2019-02-25T06:55:17.257Z,1040.36
2019-02-25T06:56:17.296Z,1040.33
2019-02-25T06:57:18.830Z,1040.37
2019-02-25T06:58:17.140Z,1040.38
2019-02-25T06:59:17.067Z,1040.35
2019-02-25T07:00:17.130Z,1040.35
2019-02-25T07:01:17.619Z,1040.36
2019-02-25T07:02:17.116Z,1040.33
2019-02-25T07:03:17.304Z,1040.4
2019-02-25T07:04:17.047Z,1040.38
2019-02-25T07:05:17.562Z,1040.41
2019-02-25T07:06:17.422Z,1040.39
2019-02-25T07:07:16.925Z,1040.37
2019-02-25T07:08:17.364Z,1040.37
2019-02-25T07:09:17.198Z,1040.34
2019-02-25T07:10:17.141Z,1040.34
2019-02-25T07:11:17.252Z,1040.33
2019-02-25T07:12:17.310Z,1040.33
2019-02-25T07:13:17.079Z,1040.32
2019-02-25T07:14:17.291Z,1040.34
2019-02-25T07:15:17.403Z,1040.36
2019-02-25T07:16:17.207Z,1040.39
2019-02-25T07:17:17.130Z,1040.34
2019-02-25T07:18:17.177Z,1040.33
2019-02-25T07:19:16.859Z,1040.26
2019-02-25T07:20:16.942Z,1040.31
2019-02-25T07:21:17.011Z,1040.32
2019-02-25T07:22:17.657Z,1040.3
2019-02-25T07:23:18.070Z,1040.35
2019-02-25T07:24:16.956Z,1040.31
2019-02-25T07:25:17.059Z,1040.34
2019-02-25T07:26:17.377Z,1040.34
2019-02-25T07:27:16.890Z,1040.31
2019-02-25T07:28:17.047Z,1040.35
2019-02-25T07:29:17.381Z,1040.37
2019-02-25T07:30:17.391Z,1040.34
2019-02-25T07:31:17.315Z,1040.35
2019-02-25T07:32:17.516Z,1040.3
2019-02-25T07:33:16.940Z,1040.3
2019-02-25T07:34:17.428Z,1040.33
2019-02-25T07:35:17.339Z,1040.34
2019-02-25T07:36:17.954Z,1040.32
2019-02-25T07:37:18.243Z,1040.32
2019-02-25T07:38:17.352Z,1040.31
2019-02-25T07:39:16.975Z,1040.33
2019-02-25T07:40:17.377Z,1040.3
2019-02-25T07:41:17.373Z,1040.33
2019-02-25T07:42:17.069Z,1040.32
2019-02-25T07:43:17.436Z,1040.4
2019-02-25T07:44:17.918Z,1040.41
2019-02-25T07:45:17.297Z,1040.41
2019-02-25T07:46:17.623Z,1040.41
2019-02-25T07:47:17.509Z,1040.41
2019-02-25T07:48:17.113Z,1040.38
2019-02-25T07:49:17.546Z,1040.41
2019-02-25T07:50:17.452Z,1040.41
2019-02-25T07:51:17.138Z,1040.36
2019-02-25T07:52:17.240Z,1040.4
2019-02-25T07:53:17.744Z,1040.4
2019-02-25T07:54:17.405Z,1040.36
2019-02-25T07:55:19.021Z,1040.39
2019-02-25T07:56:17.273Z,1040.4
2019-02-25T07:57:18.888Z,1040.41
2019-02-25T07:58:17.393Z,1040.42
2019-02-25T07:59:16.913Z,1040.4
2019-02-25T08:00:17.152Z,1040.4
2019-02-25T08:01:17.479Z,1040.37
2019-02-25T08:02:17.314Z,1040.33
2019-02-25T08:03:17.337Z,1040.34
2019-02-25T08:04:17.360Z,1040.34
2019-02-25T08:05:18.043Z,1040.31
2019-02-25T08:06:18.864Z,1040.3
2019-02-25T08:07:16.995Z,1040.32
2019-02-25T08:08:17.475Z,1040.31
2019-02-25T08:09:16.989Z,1040.28
2019-02-25T08:10:17.111Z,1040.27
2019-02-25T08:11:17.146Z,1040.24
2019-02-25T08:12:17.298Z,1040.26
2019-02-25T08:13:16.922Z,1040.24
2019-02-25T08:14:17.360Z,1040.29
2019-02-25T08:15:16.920Z,1040.34
2019-02-25T08:16:16.834Z,1040.34
2019-02-25T08:17:17.231Z,1040.33
2019-02-25T08:18:17.641Z,1040.28
2019-02-25T08:19:16.812Z,1040.31
2019-02-25T08:20:17.557Z,1040.27
2019-02-25T08:21:17.137Z,1040.29
2019-02-25T08:22:18.740Z,1040.3
2019-02-25T08:23:17.578Z,1040.28
2019-02-25T08:24:17.315Z,1040.23
2019-02-25T08:25:17.405Z,1040.25
2019-02-25T08:26:17.396Z,1040.22
2019-02-25T08:27:18.135Z,1040.27
2019-02-25T08:28:17.573Z,1040.32
2019-02-25T08:29:17.180Z,1040.35
2019-02-25T08:30:17.528Z,1040.33
2019-02-25T08:31:18.788Z,1040.34
2019-02-25T08:32:17.130Z,1040.32
2019-02-25T08:33:17.087Z,1040.37
2019-02-25T08:34:19.386Z,1040.38
2019-02-25T08:35:17.188Z,1040.38
2019-02-25T08:36:16.899Z,1040.44
2019-02-25T08:37:17.331Z,1040.39
2019-02-25T08:38:17.262Z,1040.43
2019-02-25T08:39:18.172Z,1040.42
2019-02-25T08:40:17.045Z,1040.46
2019-02-25T08:41:17.142Z,1040.43
2019-02-25T08:42:17.090Z,1040.43
2019-02-25T08:43:17.337Z,1040.42
2019-02-25T08:44:17.481Z,1040.39
2019-02-25T08:45:17.330Z,1040.42
2019-02-25T08:46:17.223Z,1040.35
2019-02-25T08:47:17.332Z,1040.33
2019-02-25T08:48:17.282Z,1040.35
2019-02-25T08:49:18.264Z,1040.34
2019-02-25T08:50:17.879Z,1040.37
2019-02-25T08:51:17.260Z,1040.36
2019-02-25T08:52:17.177Z,1040.35
2019-02-25T08:53:17.069Z,1040.37
2019-02-25T08:54:17.466Z,1040.39
2019-02-25T08:55:17.202Z,1040.38
2019-02-25T08:56:17.380Z,1040.43
2019-02-25T08:57:17.013Z,1040.46
2019-02-25T08:58:18.403Z,1040.47
2019-02-25T08:59:17.190Z,1040.51
2019-02-25T09:00:16.870Z,1040.49
2019-02-25T09:01:17.147Z,1040.49
2019-02-25T09:02:17.246Z,1040.52
2019-02-25T09:03:16.944Z,1040.52
2019-02-25T09:04:17.173Z,1040.53
2019-02-25T09:05:17.420Z,1040.56
2019-02-25T09:06:17.185Z,1040.57
2019-02-25T09:07:16.927Z,1040.59
2019-02-25T09:08:17.911Z,1040.59
2019-02-25T09:09:17.344Z,1040.56
2019-02-25T09:10:17.450Z,1040.48
2019-02-25T09:11:16.938Z,1040.49
2019-02-25T09:12:18.356Z,1040.51
2019-02-25T09:13:17.180Z,1040.5
2019-02-25T09:14:16.954Z,1040.5
2019-02-25T09:15:17.423Z,1040.47
2019-02-25T09:16:17.220Z,1040.47
2019-02-25T09:17:17.266Z,1040.45
2019-02-25T09:18:16.920Z,1040.48
2019-02-25T09:19:17.062Z,1040.49
2019-02-25T09:20:17.073Z,1040.48
2019-02-25T09:21:17.004Z,1040.5
2019-02-25T09:22:16.996Z,1040.53
2019-02-25T09:23:17.509Z,1040.56
2019-02-25T09:24:18.978Z,1040.55
2019-02-25T09:25:16.886Z,1040.56
2019-02-25T09:26:17.424Z,1040.57
2019-02-25T09:27:17.926Z,1040.54
2019-02-25T09:28:17.128Z,1040.58
2019-02-25T09:29:17.355Z,1040.6
2019-02-25T09:30:17.187Z,1040.6
2019-02-25T09:31:16.998Z,1040.57
2019-02-25T09:32:19.332Z,1040.61
2019-02-25T09:33:18.196Z,1040.59
2019-02-25T09:34:17.273Z,1040.64
2019-02-25T09:35:19.004Z,1040.65
2019-02-25T09:36:17.424Z,1040.65
2019-02-25T09:37:17.369Z,1040.63
2019-02-25T09:38:17.281Z,1040.59
2019-02-25T09:39:17.101Z,1040.63
2019-02-25T09:40:17.089Z,1040.61
2019-02-25T09:41:17.491Z,1040.61
2019-02-25T09:42:17.028Z,1040.61
2019-02-25T09:43:17.261Z,1040.58
2019-02-25T09:44:17.889Z,1040.57
2019-02-25T09:45:16.960Z,1040.57
2019-02-25T09:46:17.155Z,1040.62
2019-02-25T09:47:17.695Z,1040.63
2019-02-25T09:48:18.862Z,1040.64
2019-02-25T09:49:17.100Z,1040.64
2019-02-25T09:50:16.963Z,1040.65
2019-02-25T09:51:17.090Z,1040.59
2019-02-25T09:52:16.922Z,1040.56
2019-02-25T09:53:17.097Z,1040.59
2019-02-25T09:54:17.955Z,1040.59
2019-02-25T09:55:17.005Z,1040.59
2019-02-25T09:56:16.993Z,1040.59
2019-02-25T09:57:16.921Z,1040.52
2019-02-25T09:58:16.915Z,1040.53
2019-02-25T09:59:17.349Z,1040.53
2019-02-25T10:00:17.253Z,1040.56
2019-02-25T10:01:16.905Z,1040.53
2019-02-25T10:02:17.281Z,1040.55
2019-02-25T10:03:16.940Z,1040.53
2019-02-25T10:04:17.039Z,1040.52
2019-02-25T10:05:17.132Z,1040.56
2019-02-25T10:06:17.085Z,1040.55
2019-02-25T10:07:17.317Z,1040.53
2019-02-25T10:08:17.557Z,1040.51
2019-02-25T10:09:17.095Z,1040.5
2019-02-25T10:10:17.214Z,1040.41
2019-02-25T10:11:17.526Z,1040.4
2019-02-25T10:12:16.962Z,1040.4
2019-02-25T10:13:17.032Z,1040.36
2019-02-25T10:14:16.791Z,1040.39
2019-02-25T10:15:18.301Z,1040.37
2019-02-25T10:16:18.878Z,1040.35
2019-02-25T10:17:24.262Z,1040.36
2019-02-25T10:18:17.087Z,1040.41
2019-02-25T10:19:17.300Z,1040.33
2019-02-25T10:20:17.459Z,1040.34
2019-02-25T10:21:17.085Z,1040.34
2019-02-25T10:22:17.219Z,1040.3
2019-02-25T10:23:16.906Z,1040.32
2019-02-25T10:24:16.975Z,1040.32
2019-02-25T10:25:17.199Z,1040.36
2019-02-25T10:26:16.861Z,1040.35
2019-02-25T10:27:17.374Z,1040.38
2019-02-25T10:28:17.688Z,1040.36
2019-02-25T10:29:16.984Z,1040.35
2019-02-25T10:30:16.985Z,1040.33
2019-02-25T10:31:17.684Z,1040.32
2019-02-25T10:32:17.075Z,1040.32
2019-02-25T10:33:16.965Z,1040.29
2019-02-25T10:34:18.219Z,1040.27
2019-02-25T10:35:17.981Z,1040.24
2019-02-25T10:36:17.335Z,1040.31
2019-02-25T10:37:17.846Z,1040.23
2019-02-25T10:38:21.714Z,1040.24
2019-02-25T10:39:19.977Z,1040.24
2019-02-25T10:40:27.368Z,1040.26
2019-02-25T10:41:22.957Z,1040.22
2019-02-25T10:42:17.033Z,1040.22
2019-02-25T10:43:17.102Z,1040.18
2019-02-25T10:44:16.943Z,1040.19
2019-02-25T10:45:17.147Z,1040.19
2019-02-25T10:46:17.957Z,1040.16
2019-02-25T10:47:21.500Z,1040.19
2019-02-25T10:48:23.510Z,1040.17
2019-02-25T10:49:17.049Z,1040.14
2019-02-25T10:50:17.176Z,1040.1
2019-02-25T10:51:17.385Z,1040.09
2019-02-25T10:52:17.632Z,1040.1
2019-02-25T10:53:22.161Z,1040.12
2019-02-25T10:54:22.916Z,1040.07
2019-02-25T10:55:16.884Z,1040.1
2019-02-25T10:56:23.746Z,1040.11
2019-02-25T10:57:16.938Z,1040.1
2019-02-25T10:58:17.267Z,1040.03
2019-02-25T10:59:17.887Z,1040.11
2019-02-25T11:00:16.954Z,1040.06
2019-02-25T11:01:24.524Z,1040.08
2019-02-25T11:02:19.632Z,1040.08
2019-02-25T11:03:21.830Z,1040.03
2019-02-25T11:04:22.084Z,1040.02
2019-02-25T11:05:21.628Z,1040
2019-02-25T11:06:16.905Z,1039.99
2019-02-25T11:07:16.939Z,1040.01
2019-02-25T11:08:17.417Z,1039.98
2019-02-25T11:09:18.265Z,1039.97
2019-02-25T11:10:22.354Z,1039.93
2019-02-25T11:11:24.733Z,1039.85
2019-02-25T11:12:17.377Z,1039.86
2019-02-25T11:13:17.147Z,1039.85
2019-02-25T11:14:16.988Z,1039.8
2019-02-25T11:15:17.264Z,1039.76
2019-02-25T11:16:20.652Z,1039.78
2019-02-25T11:17:24.420Z,1039.78
2019-02-25T11:18:23.930Z,1039.77
2019-02-25T11:19:16.731Z,1039.83
2019-02-25T11:20:17.658Z,1039.81
2019-02-25T11:21:16.940Z,1039.8
2019-02-25T11:22:17.154Z,1039.81
2019-02-25T11:23:21.757Z,1039.78
2019-02-25T11:24:24.935Z,1039.76
2019-02-25T11:25:23.588Z,1039.72
2019-02-25T11:26:16.872Z,1039.69
2019-02-25T11:27:18.812Z,1039.72
2019-02-25T11:28:26.265Z,1039.69
2019-02-25T11:29:17.242Z,1039.65
2019-02-25T11:30:23.661Z,1039.72
2019-02-25T11:31:26.722Z,1039.68
2019-02-25T11:32:21.915Z,1039.69
2019-02-25T11:33:16.969Z,1039.65
2019-02-25T11:34:17.347Z,1039.68
2019-02-25T11:35:17.048Z,1039.64
2019-02-25T11:36:22.157Z,1039.66
2019-02-25T11:37:24.151Z,1039.66
2019-02-25T11:38:17.070Z,1039.63
2019-02-25T11:39:17.172Z,1039.63
2019-02-25T11:40:18.157Z,1039.63
2019-02-25T11:41:17.087Z,1039.67
2019-02-25T11:42:20.839Z,1039.61
2019-02-25T11:43:21.768Z,1039.63
2019-02-25T11:44:23.354Z,1039.65
2019-02-25T11:45:18.759Z,1039.67
2019-02-25T11:46:17.328Z,1039.66
2019-02-25T11:47:16.997Z,1039.67
2019-02-25T11:48:18.782Z,1039.67
2019-02-25T11:49:17.323Z,1039.68
2019-02-25T11:50:17.727Z,1039.69
2019-02-25T11:51:17.165Z,1039.71
2019-02-25T11:52:17.503Z,1039.69
2019-02-25T11:53:16.924Z,1039.67
2019-02-25T11:54:17.086Z,1039.66
2019-02-25T11:55:17.298Z,1039.65
2019-02-25T11:56:16.966Z,1039.66
2019-02-25T11:57:17.938Z,1039.66
2019-02-25T11:58:17.278Z,1039.63
2019-02-25T11:59:17.283Z,1039.61
2019-02-25T12:00:17.189Z,1039.64
2019-02-25T12:01:17.036Z,1039.62
2019-02-25T12:02:26.251Z,1039.61
2019-02-25T12:03:17.564Z,1039.61
2019-02-25T12:04:17.230Z,1039.58
2019-02-25T12:05:16.930Z,1039.58
2019-02-25T12:06:17.440Z,1039.61
2019-02-25T12:07:17.436Z,1039.58
2019-02-25T12:08:17.070Z,1039.54
2019-02-25T12:09:18.800Z,1039.54